Time;durP1;ratioP1;P1;durP2;ratioP2;P2;SDS_P1;SDS_P2;PMS_P1;PMS_P2;Temp;Humidity;BMP_temperature;BMP_pressure;BME280_temperature;BME280_humidity;BME280_pressure;Samples;Min_cycle;Max_cycle;Signal;HPM_P1;HPM_P2
2023/06/15 00:00:17;;;;;;;5.10;2.58;;;;;;;;;;5035404;28;93550;-69
2023/06/15 00:02:43;;;;;;;3.97;2.58;;;;;;;;;;5035729;27;92473;-72
2023/06/15 00:05:10;;;;;;;11.93;2.90;;;;;;;;;;5035884;28;92393;-70
2023/06/15 00:07:36;;;;;;;10.38;2.60;;;;;;;;;;5035369;28;95139;-71
2023/06/15 00:10:03;;;;;;;19.35;3.13;;;;;;;;;;5035793;27;92395;-71
2023/06/15 00:12:29;;;;;;;2.60;2.28;;;;;;;;;;5035557;28;93294;-71
2023/06/15 00:14:56;;;;;;;8.15;2.42;;;;;;;;;;5039219;27;94159;-71
2023/06/15 00:17:23;;;;;;;3.75;2.55;;;;;;;;;;5034789;28;92594;-71
2023/06/15 00:19:49;;;;;;;8.15;2.70;;;;;;;;;;5034940;27;93648;-71
2023/06/15 00:22:15;;;;;;;11.77;2.97;;;;;;;;;;5033339;27;94822;-71
2023/06/15 00:24:42;;;;;;;16.25;3.00;;;;;;;;;;5035417;28;95561;-71
2023/06/15 00:27:09;;;;;;;7.68;2.80;;;;;;;;;;5034612;28;93897;-71
2023/06/15 00:29:35;;;;;;;3.88;2.60;;;;;;;;;;5035810;27;92568;-71
2023/06/15 00:32:03;;;;;;;5.88;2.70;;;;;;;;;;5034897;28;93194;-71
2023/06/15 00:34:30;;;;;;;7.10;2.80;;;;;;;;;;5034818;28;93491;-71
2023/06/15 00:36:57;;;;;;;9.52;3.03;;;;;;;;;;5037792;27;92477;-70
2023/06/15 00:39:23;;;;;;;7.40;2.75;;;;;;;;;;5035540;28;92759;-71
2023/06/15 00:41:49;;;;;;;6.63;2.80;;;;;;;;;;5035448;28;92381;-71
2023/06/15 00:44:16;;;;;;;7.13;3.55;;;;;;;;;;5034680;28;93176;-71
2023/06/15 00:46:42;;;;;;;3.60;2.58;;;;;;;;;;5033569;28;95607;-71
2023/06/15 00:49:09;;;;;;;7.43;3.20;;;;;;;;;;5035225;27;92456;-71
2023/06/15 00:51:38;;;;;;;7.07;3.10;;;;;;;;;;5035473;28;94332;-71
2023/06/15 00:54:05;;;;;;;3.78;2.85;;;;;;;;;;5034395;27;93511;-71
2023/06/15 00:56:32;;;;;;;6.38;2.75;;;;;;;;;;5038264;28;93776;-71
2023/06/15 00:58:59;;;;;;;3.38;3.03;;;;;;;;;;5034400;28;93328;-71
2023/06/15 01:01:25;;;;;;;6.93;3.20;;;;;;;;;;5035193;28;92456;-71
2023/06/15 01:03:54;;;;;;;15.75;3.15;;;;;;;;;;5034619;28;93151;-71
2023/06/15 01:06:24;;;;;;;3.78;3.10;;;;;;;;;;5034817;27;94826;-71
2023/06/15 01:08:52;;;;;;;7.25;2.90;;;;;;;;;;5034486;27;92491;-71
2023/06/15 01:11:19;;;;;;;3.92;3.30;;;;;;;;;;5033146;28;94882;-71
2023/06/15 01:13:46;;;;;;;8.27;3.47;;;;;;;;;;5034385;28;93619;-71
2023/06/15 01:16:22;;;;;;;5.97;3.00;;;;;;;;;;5034275;28;92465;-73
2023/06/15 01:18:50;;;;;;;3.38;3.08;;;;;;;;;;5037505;28;93267;-71
2023/06/15 01:21:17;;;;;;;5.40;2.83;;;;;;;;;;5034474;28;92459;-71
2023/06/15 01:23:55;;;;;;;7.75;2.92;;;;;;;;;;5034371;28;93595;-71
2023/06/15 01:26:24;;;;;;;9.13;3.10;;;;;;;;;;5033865;28;92380;-71
2023/06/15 01:28:52;;;;;;;3.58;3.22;;;;;;;;;;5034620;28;91710;-71
2023/06/15 01:31:19;;;;;;;4.55;2.83;;;;;;;;;;5033611;28;92432;-71
2023/06/15 01:33:49;;;;;;;5.43;3.42;;;;;;;;;;5034366;27;93320;-71
2023/06/15 01:36:16;;;;;;;3.03;2.80;;;;;;;;;;5032628;28;94873;-70
2023/06/15 01:38:43;;;;;;;10.35;3.60;;;;;;;;;;5034029;28;95673;-71
2023/06/15 01:41:10;;;;;;;4.22;3.17;;;;;;;;;;5037312;28;93601;-70
2023/06/15 01:43:37;;;;;;;6.88;2.83;;;;;;;;;;5034033;28;93201;-71
2023/06/15 01:46:04;;;;;;;4.70;3.33;;;;;;;;;;5033770;28;93226;-70
2023/06/15 01:48:31;;;;;;;7.15;3.42;;;;;;;;;;5034420;28;92365;-71
2023/06/15 01:50:58;;;;;;;3.78;2.90;;;;;;;;;;5016549;28;94407;-71
2023/06/15 01:53:24;;;;;;;11.90;3.30;;;;;;;;;;5034427;28;92866;-71
2023/06/15 01:55:51;;;;;;;8.38;3.53;;;;;;;;;;5033787;28;92432;-71
2023/06/15 01:58:17;;;;;;;7.05;3.40;;;;;;;;;;5033743;28;93661;-71
2023/06/15 02:00:44;;;;;;;4.90;3.47;;;;;;;;;;5032223;28;96165;-71
2023/06/15 02:03:11;;;;;;;5.60;3.40;;;;;;;;;;5035848;28;92460;-70
2023/06/15 02:05:39;;;;;;;7.30;3.70;;;;;;;;;;5033336;28;93542;-70
2023/06/15 02:08:09;;;;;;;7.63;3.45;;;;;;;;;;5034091;28;92459;-71
2023/06/15 02:10:36;;;;;;;3.40;3.10;;;;;;;;;;5033349;28;93055;-71
2023/06/15 02:13:03;;;;;;;5.55;3.60;;;;;;;;;;5033914;28;94497;-71
2023/06/15 02:15:29;;;;;;;7.47;3.10;;;;;;;;;;5033590;28;92571;-70
2023/06/15 02:18:01;;;;;;;6.20;3.58;;;;;;;;;;5033887;28;93507;-71
2023/06/15 02:20:28;;;;;;;7.15;3.20;;;;;;;;;;5034009;28;94097;-70
2023/06/15 02:22:57;;;;;;;9.18;3.38;;;;;;;;;;5033418;28;92554;-71
2023/06/15 02:25:24;;;;;;;7.22;3.50;;;;;;;;;;5035169;28;95123;-70
2023/06/15 02:27:51;;;;;;;5.50;3.20;;;;;;;;;;5015829;28;92434;-70
2023/06/15 02:30:18;;;;;;;6.78;3.22;;;;;;;;;;5034053;28;92967;-70
2023/06/15 02:32:48;;;;;;;10.23;3.50;;;;;;;;;;5033464;28;93724;-70
2023/06/15 02:35:14;;;;;;;;;;;;;;;;;;5034026;28;92804;-70
2023/06/15 02:37:41;;;;;;;17.75;4.05;;;;;;;;;;5034173;27;122725;-70
2023/06/15 02:40:08;;;;;;;13.18;4.22;;;;;;;;;;5033381;28;93614;-70
2023/06/15 02:42:35;;;;;;;12.18;3.90;;;;;;;;;;5034768;27;91699;-70
2023/06/15 02:45:02;;;;;;;11.52;3.95;;;;;;;;;;5018924;28;92521;-70
2023/06/15 02:47:29;;;;;;;9.60;3.95;;;;;;;;;;5039890;28;93426;-70
2023/06/15 02:49:59;;;;;;;7.78;4.07;;;;;;;;;;5034939;28;94856;-70
2023/06/15 02:52:26;;;;;;;10.18;4.30;;;;;;;;;;5037018;28;94455;-70
2023/06/15 02:54:52;;;;;;;14.25;3.47;;;;;;;;;;5036752;28;92503;-70
2023/06/15 02:57:19;;;;;;;14.77;4.25;;;;;;;;;;5036483;27;93133;-70
2023/06/15 02:59:46;;;;;;;10.07;3.83;;;;;;;;;;5036278;28;93410;-70
2023/06/15 03:02:13;;;;;;;9.45;4.22;;;;;;;;;;5036838;28;93491;-70
2023/06/15 03:04:46;;;;;;;6.63;4.50;;;;;;;;;;5036814;28;94375;-70
2023/06/15 03:07:20;;;;;;;12.93;4.20;;;;;;;;;;5039709;28;92952;-70
2023/06/15 03:09:47;;;;;;;9.80;3.70;;;;;;;;;;5036515;28;92491;-70
2023/06/15 03:12:14;;;;;;;18.50;4.00;;;;;;;;;;5036340;28;93611;-70
2023/06/15 03:14:44;;;;;;;9.45;4.10;;;;;;;;;;5034727;28;94858;-70
2023/06/15 03:17:12;;;;;;;9.20;4.13;;;;;;;;;;5035879;27;95844;-70
2023/06/15 03:19:39;;;;;;;7.15;4.05;;;;;;;;;;5036048;28;93503;-70
2023/06/15 03:22:07;;;;;;;6.18;4.20;;;;;;;;;;5036212;28;92861;-70
2023/06/15 03:24:33;;;;;;;6.90;4.35;;;;;;;;;;5036245;27;93266;-70
2023/06/15 03:27:01;;;;;;;11.23;4.07;;;;;;;;;;5035306;28;93375;-70
2023/06/15 03:29:29;;;;;;;7.82;4.35;;;;;;;;;;5039144;27;92419;-70
2023/06/15 03:31:56;;;;;;;11.30;4.10;;;;;;;;;;5034931;28;92689;-70
2023/06/15 03:34:22;;;;;;;12.85;4.15;;;;;;;;;;5036200;28;92579;-70
2023/06/15 03:36:51;;;;;;;8.13;4.50;;;;;;;;;;5035868;28;93176;-70
2023/06/15 03:39:18;;;;;;;4.63;4.20;;;;;;;;;;5033720;28;95812;-70
2023/06/15 03:41:44;;;;;;;6.65;3.78;;;;;;;;;;5035751;27;92555;-70
2023/06/15 03:44:11;;;;;;;6.03;3.83;;;;;;;;;;5035456;28;94300;-70
2023/06/15 03:46:37;;;;;;;9.90;4.20;;;;;;;;;;5035832;28;94712;-70
2023/06/15 03:49:04;;;;;;;13.38;3.97;;;;;;;;;;5035921;27;92431;-70
2023/06/15 03:51:30;;;;;;;8.77;4.53;;;;;;;;;;5038595;28;93261;-70
2023/06/15 03:53:56;;;;;;;8.25;4.47;;;;;;;;;;5034999;27;92454;-70
2023/06/15 03:56:22;;;;;;;7.65;4.80;;;;;;;;;;5036094;28;93197;-70
2023/06/15 03:58:49;;;;;;;5.78;3.67;;;;;;;;;;5034991;27;93515;-70
2023/06/15 04:01:16;;;;;;;8.10;4.70;;;;;;;;;;5035572;28;92439;-70
2023/06/15 04:03:42;;;;;;;6.10;4.35;;;;;;;;;;5034098;28;94852;-69
2023/06/15 04:06:09;;;;;;;7.35;4.30;;;;;;;;;;5035379;28;93351;-70
2023/06/15 04:08:35;;;;;;;5.07;4.30;;;;;;;;;;5035894;27;92504;-70
2023/06/15 04:11:01;;;;;;;9.30;4.55;;;;;;;;;;5035754;27;94475;-70
2023/06/15 04:13:28;;;;;;;6.22;3.95;;;;;;;;;;5037913;28;94037;-70
2023/06/15 04:15:54;;;;;;;8.20;4.30;;;;;;;;;;5035357;27;93158;-70
2023/06/15 04:18:21;;;;;;;7.15;4.40;;;;;;;;;;5035029;28;94131;-70
2023/06/15 04:20:47;;;;;;;9.07;4.35;;;;;;;;;;5035338;28;92047;-70
2023/06/15 04:23:14;;;;;;;9.90;4.10;;;;;;;;;;5035365;27;92412;-70
2023/06/15 04:25:43;;;;;;;11.57;4.38;;;;;;;;;;5035549;28;92409;-70
2023/06/15 04:28:12;;;;;;;4.75;4.20;;;;;;;;;;5032961;27;94910;-70
2023/06/15 04:30:45;;;;;;;7.30;4.55;;;;;;;;;;5035047;27;95719;-70
2023/06/15 04:33:13;;;;;;;9.63;4.32;;;;;;;;;;5034873;27;93655;-72
2023/06/15 04:35:40;;;;;;;7.43;4.30;;;;;;;;;;5038102;28;92469;-70
2023/06/15 04:38:07;;;;;;;6.80;4.60;;;;;;;;;;5033958;28;95365;-70
2023/06/15 04:40:33;;;;;;;9.68;4.13;;;;;;;;;;5034555;27;92499;-70
2023/06/15 04:43:02;;;;;;;8.75;4.03;;;;;;;;;;5035083;28;93332;-70
2023/06/15 04:45:29;;;;;;;28.60;4.57;;;;;;;;;;5017679;28;94912;-70
2023/06/15 04:47:55;;;;;;;18.27;4.57;;;;;;;;;;5017238;28;92459;-70
2023/06/15 04:50:22;;;;;;;16.80;4.60;;;;;;;;;;5034860;28;93331;-70
2023/06/15 04:52:48;;;;;;;9.88;4.43;;;;;;;;;;5033343;27;97064;-70
2023/06/15 04:55:15;;;;;;;13.45;4.43;;;;;;;;;;5034839;28;92438;-70
2023/06/15 04:57:42;;;;;;;10.50;4.20;;;;;;;;;;5037267;28;93475;-70
2023/06/15 05:00:10;;;;;;;7.90;4.40;;;;;;;;;;5017022;28;92474;-70
2023/06/15 05:02:36;;;;;;;7.70;4.68;;;;;;;;;;5034627;28;93185;-70
2023/06/15 05:05:03;;;;;;;7.15;4.30;;;;;;;;;;5034835;27;92688;-70
2023/06/15 05:07:29;;;;;;;7.40;5.07;;;;;;;;;;5033298;28;92662;-70
2023/06/15 05:09:56;;;;;;;6.82;4.88;;;;;;;;;;5034906;27;93290;-70
2023/06/15 05:12:22;;;;;;;9.55;5.22;;;;;;;;;;5034107;28;93961;-70
2023/06/15 05:14:49;;;;;;;11.82;4.63;;;;;;;;;;5034517;28;92510;-70
2023/06/15 05:17:15;;;;;;;9.98;4.40;;;;;;;;;;5035649;28;94858;-70
2023/06/15 05:19:41;;;;;;;6.65;4.45;;;;;;;;;;5033944;28;92460;-70
2023/06/15 05:22:08;;;;;;;11.70;5.07;;;;;;;;;;5034340;28;93204;-70
2023/06/15 05:24:34;;;;;;;11.57;4.82;;;;;;;;;;5034197;27;93520;-70
2023/06/15 05:27:02;;;;;;;18.65;5.93;;;;;;;;;;5033511;28;92441;-70
2023/06/15 05:29:28;;;;;;;16.10;5.85;;;;;;;;;;5034049;28;93329;-70
2023/06/15 05:31:55;;;;;;;8.93;6.15;;;;;;;;;;5033730;28;93526;-70
2023/06/15 05:34:22;;;;;;;14.50;5.10;;;;;;;;;;5034513;28;91635;-70
2023/06/15 05:36:48;;;;;;;11.40;5.50;;;;;;;;;;5034197;27;94673;-70
2023/06/15 05:39:17;;;;;;;9.65;5.95;;;;;;;;;;5037269;27;93218;-70
2023/06/15 05:41:44;;;;;;;14.27;6.47;;;;;;;;;;5032637;28;95046;-70
2023/06/15 05:44:10;;;;;;;12.60;6.28;;;;;;;;;;5033501;28;93716;-70
2023/06/15 05:46:37;;;;;;;10.57;5.90;;;;;;;;;;5033798;28;92473;-70
2023/06/15 05:49:03;;;;;;;11.90;6.07;;;;;;;;;;5034079;28;93094;-70
2023/06/15 05:51:29;;;;;;;12.45;6.07;;;;;;;;;;5033596;27;93762;-70
2023/06/15 05:53:56;;;;;;;14.23;6.18;;;;;;;;;;5034183;28;92446;-70
2023/06/15 05:56:22;;;;;;;19.80;6.25;;;;;;;;;;5033787;28;93170;-70
2023/06/15 05:58:48;;;;;;;22.08;5.35;;;;;;;;;;5034191;28;92788;-69
2023/06/15 06:01:15;;;;;;;12.75;6.20;;;;;;;;;;5037091;28;92742;-70
2023/06/15 06:03:41;;;;;;;11.57;5.95;;;;;;;;;;5034210;28;95864;-70
2023/06/15 06:06:08;;;;;;;19.42;6.80;;;;;;;;;;5031846;28;95594;-70
2023/06/15 06:08:35;;;;;;;12.77;5.82;;;;;;;;;;5033458;28;95720;-70
2023/06/15 06:11:03;;;;;;;9.48;6.00;;;;;;;;;;5033537;28;93486;-70
2023/06/15 06:13:30;;;;;;;9.18;6.35;;;;;;;;;;5033607;28;92472;-70
2023/06/15 06:15:56;;;;;;;17.60;6.93;;;;;;;;;;5033493;28;93297;-70
2023/06/15 06:18:23;;;;;;;19.77;6.15;;;;;;;;;;5034661;27;94403;-70
2023/06/15 06:20:49;;;;;;;16.17;6.95;;;;;;;;;;5037078;27;92364;-70
2023/06/15 06:23:15;;;;;;;13.02;6.90;;;;;;;;;;5040868;27;94203;-70
2023/06/15 06:25:42;;;;;;;19.15;6.75;;;;;;;;;;5037472;27;92490;-70
2023/06/15 06:28:08;;;;;;;15.02;6.50;;;;;;;;;;5037254;28;94508;-70
2023/06/15 06:30:34;;;;;;;13.60;6.00;;;;;;;;;;5035465;28;94829;-70
2023/06/15 06:33:03;;;;;;;13.10;6.20;;;;;;;;;;5036536;27;92660;-70
2023/06/15 06:35:29;;;;;;;16.65;6.43;;;;;;;;;;5037510;27;93536;-70
2023/06/15 06:37:56;;;;;;;14.93;7.40;;;;;;;;;;5036509;28;93146;-70
2023/06/15 06:40:22;;;;;;;17.05;6.60;;;;;;;;;;5036859;27;92719;-70
2023/06/15 06:42:48;;;;;;;12.38;6.72;;;;;;;;;;5036840;28;93318;-70
2023/06/15 06:45:15;;;;;;;15.35;6.93;;;;;;;;;;5039602;28;93520;-70
2023/06/15 06:47:42;;;;;;;22.13;8.02;;;;;;;;;;5036801;28;92021;-70
2023/06/15 06:50:08;;;;;;;10.75;6.63;;;;;;;;;;5036593;28;93448;-70
2023/06/15 06:52:35;;;;;;;12.93;6.78;;;;;;;;;;5037030;27;92498;-70
2023/06/15 06:55:01;;;;;;;21.20;7.20;;;;;;;;;;5017129;28;95169;-70
2023/06/15 06:57:27;;;;;;;13.30;6.10;;;;;;;;;;5036743;28;94670;-70
2023/06/15 06:59:54;;;;;;;11.43;7.13;;;;;;;;;;5036921;28;92453;-70
2023/06/15 07:02:20;;;;;;;21.15;7.30;;;;;;;;;;5036150;28;93220;-70
2023/06/15 07:04:47;;;;;;;14.23;6.30;;;;;;;;;;5036394;28;93394;-70
2023/06/15 07:07:13;;;;;;;11.13;6.22;;;;;;;;;;5039590;28;92559;-70
2023/06/15 07:09:40;;;;;;;13.00;6.85;;;;;;;;;;5036226;28;93475;-70
2023/06/15 07:12:06;;;;;;;15.63;6.70;;;;;;;;;;5037099;28;91756;-70
2023/06/15 07:14:33;;;;;;;9.82;6.32;;;;;;;;;;5036321;27;92861;-71
2023/06/15 07:16:59;;;;;;;20.65;7.13;;;;;;;;;;5036150;28;93525;-70
2023/06/15 07:19:26;;;;;;;18.50;6.95;;;;;;;;;;5034526;28;95280;-70
2023/06/15 07:21:52;;;;;;;24.38;6.50;;;;;;;;;;5018266;28;95473;-70
2023/06/15 07:24:18;;;;;;;14.68;7.07;;;;;;;;;;5036176;28;93692;-70
2023/06/15 07:26:45;;;;;;;22.10;6.60;;;;;;;;;;5038800;28;92458;-70
2023/06/15 07:29:12;;;;;;;18.98;7.35;;;;;;;;;;5034664;27;92699;-70
2023/06/15 07:31:38;;;;;;;26.23;7.10;;;;;;;;;;5035947;27;92783;-70
2023/06/15 07:34:05;;;;;;;23.67;6.72;;;;;;;;;;5036234;28;93235;-70
2023/06/15 07:36:32;;;;;;;25.38;7.40;;;;;;;;;;5036671;28;93706;-70
2023/06/15 07:38:58;;;;;;;18.85;7.10;;;;;;;;;;5035740;27;92895;-70
2023/06/15 07:41:24;;;;;;;20.95;7.05;;;;;;;;;;5036030;27;93677;-70
2023/06/15 07:43:51;;;;;;;15.48;7.18;;;;;;;;;;5033836;28;95905;-70
2023/06/15 07:46:17;;;;;;;12.10;7.00;;;;;;;;;;5035487;27;92530;-70
2023/06/15 07:48:43;;;;;;;21.15;6.53;;;;;;;;;;5038706;28;93224;-70
2023/06/15 07:51:10;;;;;;;17.88;7.07;;;;;;;;;;5036289;27;92440;-70
2023/06/15 07:53:49;;;;;;;18.33;6.45;;;;;;;;;;5019296;28;93980;-70
2023/06/15 07:56:16;;;;;;;8.93;6.38;;;;;;;;;;5035314;27;93976;-70
2023/06/15 07:58:42;;;;;;;12.98;6.25;;;;;;;;;;5035345;28;92415;-70
2023/06/15 08:01:08;;;;;;;20.60;6.25;;;;;;;;;;5036463;28;93332;-70
2023/06/15 08:03:35;;;;;;;12.20;6.30;;;;;;;;;;5035399;27;93516;-70
2023/06/15 08:06:02;;;;;;;18.90;6.28;;;;;;;;;;5035888;28;92488;-70
2023/06/15 08:08:28;;;;;;;9.48;5.97;;;;;;;;;;5033718;27;94811;-70
2023/06/15 08:10:54;;;;;;;16.80;5.88;;;;;;;;;;5020672;27;93576;-70
2023/06/15 08:13:21;;;;;;;11.52;6.10;;;;;;;;;;5035710;28;94687;-70
2023/06/15 08:15:47;;;;;;;18.83;5.82;;;;;;;;;;5017450;28;93797;-70
2023/06/15 08:18:14;;;;;;;31.20;5.82;;;;;;;;;;5035055;28;92858;-70
2023/06/15 08:20:40;;;;;;;9.35;4.97;;;;;;;;;;5035155;28;94018;-70
2023/06/15 08:23:06;;;;;;;10.23;5.30;;;;;;;;;;5035030;28;93443;-70
2023/06/15 08:25:34;;;;;;;8.05;5.35;;;;;;;;;;5035327;28;92917;-70
2023/06/15 08:28:01;;;;;;;17.00;5.13;;;;;;;;;;5035210;28;93487;-70
2023/06/15 08:30:27;;;;;;;20.23;6.13;;;;;;;;;;5034683;28;93993;-70
2023/06/15 08:32:54;;;;;;;9.20;5.70;;;;;;;;;;5036666;28;94863;-70
2023/06/15 08:35:20;;;;;;;9.52;5.07;;;;;;;;;;5034679;27;93702;-70
2023/06/15 08:37:46;;;;;;;8.40;4.93;;;;;;;;;;5035539;28;92474;-70
2023/06/15 08:40:13;;;;;;;15.73;5.78;;;;;;;;;;5034844;27;93153;-70
2023/06/15 08:42:40;;;;;;;10.82;5.70;;;;;;;;;;5034702;27;93491;-70
2023/06/15 08:45:06;;;;;;;14.48;5.32;;;;;;;;;;5034598;28;92438;-70
2023/06/15 08:47:34;;;;;;;13.57;5.03;;;;;;;;;;5034616;28;93361;-70
2023/06/15 08:50:03;;;;;;;15.48;4.45;;;;;;;;;;5035177;28;92787;-70
2023/06/15 08:52:32;;;;;;;21.92;6.22;;;;;;;;;;5035181;28;92429;-71
2023/06/15 08:54:59;;;;;;;15.07;4.90;;;;;;;;;;5037546;27;93325;-70
2023/06/15 08:57:25;;;;;;;12.30;5.38;;;;;;;;;;5032954;28;94851;-70
2023/06/15 08:59:53;;;;;;;9.60;5.70;;;;;;;;;;5034687;28;95624;-70
2023/06/15 09:02:20;;;;;;;19.08;5.88;;;;;;;;;;5034310;28;93471;-70
2023/06/15 09:04:52;;;;;;;13.77;5.45;;;;;;;;;;5034665;28;92484;-70
2023/06/15 09:07:20;;;;;;;8.95;4.18;;;;;;;;;;5034480;27;92569;-70
2023/06/15 09:10:05;;;;;;;10.10;4.95;;;;;;;;;;5034392;28;93510;-71
2023/06/15 09:12:31;;;;;;;18.48;5.85;;;;;;;;;;5034515;27;92530;-71
2023/06/15 09:14:58;;;;;;;11.10;4.97;;;;;;;;;;5037698;28;93205;-71
2023/06/15 09:17:27;;;;;;;11.32;4.30;;;;;;;;;;5034439;27;92426;-71
2023/06/15 09:19:54;;;;;;;16.50;4.50;;;;;;;;;;5016296;28;93142;-70
2023/06/15 09:22:21;;;;;;;19.10;4.47;;;;;;;;;;5032438;28;95949;-70
2023/06/15 09:24:47;;;;;;;11.45;3.88;;;;;;;;;;5034142;28;92505;-71
2023/06/15 09:27:14;;;;;;;8.55;3.72;;;;;;;;;;5033746;28;93262;-71
2023/06/15 09:30:00;;;;;;;6.50;3.78;;;;;;;;;;5016304;28;93492;-71
2023/06/15 09:32:27;;;;;;;11.93;3.60;;;;;;;;;;5033999;28;92555;-71
2023/06/15 09:34:58;;;;;;;12.90;3.45;;;;;;;;;;5034020;28;93214;-70
2023/06/15 09:37:24;;;;;;;;;;;;;;;;;;5037911;27;93418;-70
2023/06/15 09:39:52;;;;;;;7.55;3.47;;;;;;;;;;5035476;28;123840;-70
2023/06/15 09:42:24;;;;;;;11.52;3.60;;;;;;;;;;5034099;28;94624;-70
2023/06/15 09:44:54;;;;;;;8.07;3.45;;;;;;;;;;5033749;28;92375;-70
2023/06/15 09:47:21;;;;;;;15.70;3.80;;;;;;;;;;5032350;28;94791;-71
2023/06/15 09:49:48;;;;;;;9.32;3.65;;;;;;;;;;5033819;28;93549;-71
2023/06/15 09:52:14;;;;;;;9.52;2.70;;;;;;;;;;5033183;28;92576;-71
2023/06/15 09:54:40;;;;;;;7.53;3.72;;;;;;;;;;5033868;27;93307;-71
2023/06/15 09:57:07;;;;;;;10.00;3.67;;;;;;;;;;5033235;28;93476;-71
2023/06/15 09:59:33;;;;;;;12.27;3.30;;;;;;;;;;5036849;28;92612;-71
2023/06/15 10:02:00;;;;;;;9.68;3.28;;;;;;;;;;5033784;28;94470;-71
2023/06/15 10:04:31;;;;;;;9.13;3.55;;;;;;;;;;5034037;28;91695;-71
2023/06/15 10:07:00;;;;;;;12.63;3.42;;;;;;;;;;5033822;27;92425;-71
2023/06/15 10:09:28;;;;;;;7.45;2.97;;;;;;;;;;5033533;27;93553;-71
2023/06/15 10:12:05;;;;;;;9.82;3.20;;;;;;;;;;5032052;27;94796;-71
2023/06/15 10:14:34;;;;;;;11.00;3.42;;;;;;;;;;5033688;28;94371;-71
2023/06/15 10:17:02;;;;;;;8.57;3.03;;;;;;;;;;5033300;28;93839;-72
2023/06/15 10:19:31;;;;;;;5.72;2.88;;;;;;;;;;5033455;28;92444;-72
2023/06/15 10:21:58;;;;;;;12.10;3.47;;;;;;;;;;5036480;28;93703;-72
2023/06/15 10:24:25;;;;;;;4.57;2.60;;;;;;;;;;5033870;28;92643;-72
2023/06/15 10:26:51;;;;;;;16.40;2.80;;;;;;;;;;5033013;28;93680;-71
2023/06/15 10:29:23;;;;;;;4.75;2.85;;;;;;;;;;5033419;28;92832;-72
2023/06/15 10:31:55;;;;;;;9.77;3.08;;;;;;;;;;5033367;27;92491;-72
2023/06/15 10:34:28;;;;;;;10.85;3.13;;;;;;;;;;5033629;28;94181;-71
2023/06/15 10:37:01;;;;;;;7.85;2.63;;;;;;;;;;5030359;28;95954;-71
2023/06/15 10:39:39;;;;;;;9.63;2.90;;;;;;;;;;5033643;28;92752;-71
2023/06/15 10:42:06;;;;;;;6.55;3.00;;;;;;;;;;5033406;28;93466;-71
2023/06/15 10:44:34;;;;;;;7.55;2.97;;;;;;;;;;5036397;28;93126;-71
2023/06/15 10:47:06;;;;;;;10.52;2.88;;;;;;;;;;5033693;28;94034;-72
2023/06/15 10:49:33;;;;;;;11.05;2.63;;;;;;;;;;5032731;28;93490;-71
2023/06/15 10:52:01;;;;;;;10.90;3.13;;;;;;;;;;5033155;28;92497;-72
2023/06/15 10:54:28;;;;;;;5.97;2.70;;;;;;;;;;5033481;28;91823;-71
2023/06/15 10:56:55;;;;;;;4.55;2.08;;;;;;;;;;5032892;28;93929;-72
2023/06/15 10:59:41;;;;;;;2.55;2.35;;;;;;;;;;5031978;27;92441;-72
2023/06/15 11:02:34;;;;;;;6.57;2.72;;;;;;;;;;5031924;28;95774;-72
2023/06/15 11:05:04;;;;;;;7.78;3.20;;;;;;;;;;4995505;28;93552;-71
2023/06/15 11:07:31;;;;;;;;;;;;;;;;;;5040633;28;92462;-71
2023/06/15 11:09:57;;;;;;;2.10;1.98;;;;;;;;;;5037008;28;123847;-71
2023/06/15 11:12:33;;;;;;;9.00;2.53;;;;;;;;;;5036759;27;92518;-72
2023/06/15 11:15:01;;;;;;;5.50;2.50;;;;;;;;;;5036326;28;93317;-71
2023/06/15 11:17:28;;;;;;;6.13;2.58;;;;;;;;;;5036127;27;94739;-72
2023/06/15 11:19:55;;;;;;;8.00;3.20;;;;;;;;;;5036521;28;91706;-71
2023/06/15 11:22:25;;;;;;;9.88;3.30;;;;;;;;;;5036285;28;92453;-71
2023/06/15 11:24:55;;;;;;;6.10;3.30;;;;;;;;;;5035767;27;93378;-71
2023/06/15 11:27:22;;;;;;;11.37;3.47;;;;;;;;;;5037024;28;94950;-72
2023/06/15 11:29:55;;;;;;;13.60;3.42;;;;;;;;;;5035677;27;93379;-72
2023/06/15 11:32:24;;;;;;;5.05;2.67;;;;;;;;;;5035886;28;92461;-72
2023/06/15 11:34:55;;;;;;;12.60;3.22;;;;;;;;;;5018273;28;93041;-72
2023/06/15 11:37:22;;;;;;;16.92;3.00;;;;;;;;;;5017655;28;93851;-72
2023/06/15 11:39:48;;;;;;;7.93;2.95;;;;;;;;;;5017798;28;92457;-72
2023/06/15 11:42:15;;;;;;;8.50;2.25;;;;;;;;;;5036397;28;94666;-71
2023/06/15 11:44:41;;;;;;;7.38;2.53;;;;;;;;;;5036355;27;93889;-72
2023/06/15 11:47:11;;;;;;;10.45;2.60;;;;;;;;;;5035840;27;92515;-72
2023/06/15 11:49:38;;;;;;;7.55;3.17;;;;;;;;;;5038262;28;93351;-71
2023/06/15 11:52:05;;;;;;;6.57;2.70;;;;;;;;;;5016427;28;95180;-71
2023/06/15 11:54:31;;;;;;;8.68;2.72;;;;;;;;;;5035568;27;95569;-71
2023/06/15 11:57:15;;;;;;;5.97;2.17;;;;;;;;;;5035990;28;95167;-71
2023/06/15 11:59:42;;;;;;;8.43;2.78;;;;;;;;;;5036110;27;92831;-71
2023/06/15 12:02:08;;;;;;;9.10;2.42;;;;;;;;;;5035190;27;93710;-72
2023/06/15 12:04:35;;;;;;;7.07;2.60;;;;;;;;;;5035845;27;94607;-72
2023/06/15 12:07:04;;;;;;;6.68;2.13;;;;;;;;;;5035475;27;92477;-71
2023/06/15 12:09:31;;;;;;;8.77;2.80;;;;;;;;;;5035984;28;91820;-72
2023/06/15 12:11:57;;;;;;;4.97;2.70;;;;;;;;;;5038183;28;93448;-72
2023/06/15 12:14:24;;;;;;;8.88;2.85;;;;;;;;;;5035720;28;94221;-72
2023/06/15 12:16:51;;;;;;;6.18;2.28;;;;;;;;;;5032610;27;96043;-72
2023/06/15 12:19:18;;;;;;;5.97;2.28;;;;;;;;;;5035237;27;92381;-72
2023/06/15 12:21:46;;;;;;;8.02;2.60;;;;;;;;;;5035631;28;94587;-72
2023/06/15 12:24:16;;;;;;;3.85;2.20;;;;;;;;;;5035053;28;93458;-72
2023/06/15 12:26:50;;;;;;;7.35;2.58;;;;;;;;;;5034847;27;92378;-71
2023/06/15 12:29:17;;;;;;;6.38;2.33;;;;;;;;;;5034775;28;93199;-71
2023/06/15 12:31:47;;;;;;;6.35;2.22;;;;;;;;;;5034838;28;93523;-73
2023/06/15 12:34:13;;;;;;;11.23;2.35;;;;;;;;;;5038915;27;91673;-71
2023/06/15 12:36:40;;;;;;;6.10;2.08;;;;;;;;;;5034873;28;93522;-71
2023/06/15 12:39:10;;;;;;;9.30;2.67;;;;;;;;;;5035158;28;92463;-70
2023/06/15 12:41:38;;;;;;;4.53;1.90;;;;;;;;;;5033272;28;94786;-72
2023/06/15 12:44:05;;;;;;;2.85;2.15;;;;;;;;;;5034554;28;93380;-71
2023/06/15 12:46:39;;;;;;;3.60;2.25;;;;;;;;;;5016739;28;92554;-71
2023/06/15 12:49:06;;;;;;;4.07;2.30;;;;;;;;;;5034869;28;93281;-72
2023/06/15 12:51:33;;;;;;;6.22;2.75;;;;;;;;;;5034268;27;93424;-72
2023/06/15 12:54:02;;;;;;;9.45;2.17;;;;;;;;;;5035045;28;92626;-72
2023/06/15 12:56:29;;;;;;;7.63;2.65;;;;;;;;;;5037084;28;93439;-72
2023/06/15 12:58:55;;;;;;;6.32;2.70;;;;;;;;;;5035536;28;91705;-72
2023/06/15 13:01:22;;;;;;;7.32;2.63;;;;;;;;;;5034552;27;92775;-72
2023/06/15 13:03:48;;;;;;;7.43;2.50;;;;;;;;;;5034864;28;93431;-72
2023/06/15 13:06:15;;;;;;;5.28;2.40;;;;;;;;;;5033204;28;94863;-72
2023/06/15 13:08:45;;;;;;;3.42;2.28;;;;;;;;;;5034527;28;95745;-72
2023/06/15 13:11:12;;;;;;;7.70;2.75;;;;;;;;;;5034279;27;92476;-72
2023/06/15 13:13:38;;;;;;;5.32;2.42;;;;;;;;;;5034388;28;92411;-72
2023/06/15 13:16:05;;;;;;;9.32;2.92;;;;;;;;;;5034703;27;94501;-72
2023/06/15 13:18:32;;;;;;;4.15;2.60;;;;;;;;;;5037107;27;93514;-71
2023/06/15 13:20:58;;;;;;;8.10;2.45;;;;;;;;;;5034188;28;93227;-71
2023/06/15 13:23:25;;;;;;;10.50;2.30;;;;;;;;;;5034664;27;92793;-73
2023/06/15 13:25:52;;;;;;;12.90;2.15;;;;;;;;;;5033928;27;92573;-71
2023/06/15 13:28:18;;;;;;;5.30;2.30;;;;;;;;;;5032728;27;93231;-71
2023/06/15 13:30:44;;;;;;;5.63;2.25;;;;;;;;;;5032481;28;95829;-71
2023/06/15 13:33:11;;;;;;;7.32;2.53;;;;;;;;;;5034397;27;92542;-71
2023/06/15 13:35:37;;;;;;;14.25;2.42;;;;;;;;;;5034328;28;93140;-71
2023/06/15 13:38:04;;;;;;;9.35;2.60;;;;;;;;;;5037268;28;93480;-71
2023/06/15 13:40:30;;;;;;;3.55;2.25;;;;;;;;;;5033982;27;93697;-71
2023/06/15 13:42:57;;;;;;;5.18;2.35;;;;;;;;;;5033954;28;93490;-71
2023/06/15 13:45:23;;;;;;;5.40;2.28;;;;;;;;;;5034094;28;92472;-71
2023/06/15 13:47:49;;;;;;;9.57;2.58;;;;;;;;;;5034589;28;93140;-71
2023/06/15 13:50:17;;;;;;;4.85;2.20;;;;;;;;;;5033685;28;93308;-71
2023/06/15 13:52:46;;;;;;;3.67;2.05;;;;;;;;;;5033983;28;92400;-71
2023/06/15 13:55:13;;;;;;;5.97;2.42;;;;;;;;;;5032016;27;94853;-71
2023/06/15 13:57:40;;;;;;;14.15;2.60;;;;;;;;;;5033733;27;92734;-71
2023/06/15 14:00:10;;;;;;;4.82;2.40;;;;;;;;;;5037236;28;92520;-71
2023/06/15 14:02:36;;;;;;;6.78;2.58;;;;;;;;;;5033458;28;93323;-71
2023/06/15 14:05:03;;;;;;;2.70;2.13;;;;;;;;;;5033485;27;92553;-71
2023/06/15 14:07:29;;;;;;;5.45;2.30;;;;;;;;;;5033776;28;93643;-71
2023/06/15 14:09:56;;;;;;;5.28;2.53;;;;;;;;;;5033638;28;93601;-71
2023/06/15 14:12:22;;;;;;;6.43;2.28;;;;;;;;;;5033733;28;91629;-71
2023/06/15 14:14:48;;;;;;;5.13;2.40;;;;;;;;;;5033724;27;92847;-71
2023/06/15 14:17:15;;;;;;;7.32;2.30;;;;;;;;;;5033213;28;93463;-71
2023/06/15 14:19:41;;;;;;;3.13;2.10;;;;;;;;;;5031989;28;94893;-71
2023/06/15 14:22:07;;;;;;;7.15;2.60;;;;;;;;;;5036180;28;95609;-71
2023/06/15 14:24:34;;;;;;;7.45;2.42;;;;;;;;;;5034396;27;92554;-71
2023/06/15 14:27:01;;;;;;;5.32;2.53;;;;;;;;;;5032896;28;92484;-71
2023/06/15 14:29:27;;;;;;;15.48;3.00;;;;;;;;;;5033099;28;93016;-71
2023/06/15 14:31:53;;;;;;;4.55;2.22;;;;;;;;;;5033145;28;92363;-72
2023/06/15 14:34:20;;;;;;;6.72;2.38;;;;;;;;;;5033232;27;93375;-72
2023/06/15 14:36:47;;;;;;;3.42;2.38;;;;;;;;;;5033734;28;93202;-72
2023/06/15 14:39:15;;;;;;;7.28;2.22;;;;;;;;;;5035073;27;92487;-72